createdAt,value
2023-01-18T00:00:46.538Z,89.31
2023-01-18T00:01:46.615Z,88.16
2023-01-18T00:02:46.517Z,87.95
2023-01-18T00:03:46.525Z,87.63
2023-01-18T00:04:46.525Z,88.26
2023-01-18T00:05:46.497Z,89.51
2023-01-18T00:06:46.478Z,88.12
2023-01-18T00:07:46.506Z,88.75
2023-01-18T00:08:46.487Z,87.07
2023-01-18T00:09:46.465Z,87.91
2023-01-18T00:10:46.437Z,89.37
2023-01-18T00:11:46.427Z,88.64
2023-01-18T00:12:46.419Z,88.22
2023-01-18T00:13:46.437Z,89.06
2023-01-18T00:14:46.386Z,88.85
2023-01-18T00:15:46.398Z,88.99
2023-01-18T00:16:46.366Z,89.06
2023-01-18T00:17:46.367Z,88.64
2023-01-18T00:18:46.343Z,88.53
2023-01-18T00:19:46.359Z,89.26
2023-01-18T00:20:46.333Z,89.06
2023-01-18T00:21:46.340Z,89.37
2023-01-18T00:22:46.313Z,88.64
2023-01-18T00:23:46.314Z,89.89
2023-01-18T00:24:46.293Z,88.53
2023-01-18T00:25:46.308Z,88.75
2023-01-18T00:26:46.290Z,89.26
2023-01-18T00:27:46.273Z,88.64
2023-01-18T00:28:46.249Z,89.06
2023-01-18T00:29:46.257Z,88.95
2023-01-18T00:30:46.237Z,89.26
2023-01-18T00:31:46.321Z,89.26
2023-01-18T00:32:46.208Z,88.53
2023-01-18T00:33:46.202Z,90.10
2023-01-18T00:34:46.183Z,89.06
2023-01-18T00:35:46.200Z,88.53
2023-01-18T00:36:46.163Z,87.18
2023-01-18T00:37:46.162Z,88.53
2023-01-18T00:38:46.141Z,88.64
2023-01-18T00:39:46.134Z,87.70
2023-01-18T00:40:46.133Z,87.18
2023-01-18T00:41:46.147Z,87.39
2023-01-18T00:42:46.091Z,88.01
2023-01-18T00:43:46.095Z,89.10
2023-01-18T00:44:46.067Z,89.47
2023-01-18T00:45:46.124Z,88.64
2023-01-18T00:46:46.064Z,88.99
2023-01-18T00:47:46.083Z,88.68
2023-01-18T00:48:46.035Z,87.63
2023-01-18T00:49:46.046Z,88.37
2023-01-18T00:50:46.014Z,87.43
2023-01-18T00:51:46.016Z,88.57
2023-01-18T00:52:45.986Z,88.68
2023-01-18T00:53:46.034Z,87.95
2023-01-18T00:54:45.972Z,89.93
2023-01-18T00:55:45.984Z,90.25
2023-01-18T00:56:45.947Z,90.10
2023-01-18T00:57:45.969Z,88.57
2023-01-18T00:58:45.927Z,89.10
2023-01-18T00:59:45.943Z,89.31
2023-01-18T01:00:46.051Z,89.89
2023-01-18T01:01:46.081Z,89.06
2023-01-18T01:02:45.974Z,88.75
2023-01-18T01:03:45.887Z,88.64
2023-01-18T01:04:45.868Z,88.85
2023-01-18T01:05:45.887Z,89.37
2023-01-18T01:06:46.353Z,89.68
2023-01-18T01:07:45.853Z,88.75
2023-01-18T01:08:45.822Z,89.26
2023-01-18T01:09:45.830Z,90.10
2023-01-18T01:10:45.820Z,91.08
2023-01-18T01:11:45.816Z,90.00
2023-01-18T01:12:45.794Z,89.47
2023-01-18T01:13:45.775Z,89.16
2023-01-18T01:14:45.791Z,88.57
2023-01-18T01:15:45.769Z,88.68
2023-01-18T01:16:45.815Z,88.99
2023-01-18T01:17:45.743Z,88.06
2023-01-18T01:18:45.732Z,88.26
2023-01-18T01:19:45.751Z,88.16
2023-01-18T01:20:45.689Z,87.32
2023-01-18T01:21:45.704Z,87.43
2023-01-18T01:22:45.676Z,89.83
2023-01-18T01:23:45.672Z,89.41
2023-01-18T01:24:45.691Z,88.57
2023-01-18T01:25:45.659Z,89.41
2023-01-18T01:26:45.651Z,90.45
2023-01-18T01:27:45.646Z,89.20
2023-01-18T01:28:45.613Z,89.51
2023-01-18T01:29:45.597Z,89.20
2023-01-18T01:30:45.715Z,89.10
2023-01-18T01:31:45.579Z,88.89
2023-01-18T01:32:45.599Z,88.89
2023-01-18T01:33:45.557Z,88.26
2023-01-18T01:34:45.562Z,88.26
2023-01-18T01:35:45.543Z,88.68
2023-01-18T01:36:45.547Z,88.47
2023-01-18T01:37:45.516Z,87.22
2023-01-18T01:38:45.541Z,88.99
2023-01-18T01:39:46.060Z,89.83
2023-01-18T01:40:45.514Z,87.53
2023-01-18T01:41:45.466Z,88.37
2023-01-18T01:42:45.472Z,89.10
2023-01-18T01:43:45.468Z,87.95
2023-01-18T01:44:45.468Z,88.47
2023-01-18T01:45:45.480Z,88.78
2023-01-18T01:46:45.458Z,88.26
2023-01-18T01:47:45.414Z,88.37
2023-01-18T01:48:45.423Z,88.16
2023-01-18T01:49:45.413Z,88.99
2023-01-18T01:50:45.412Z,89.83
2023-01-18T01:51:45.370Z,87.95
2023-01-18T01:52:45.376Z,88.37
2023-01-18T01:53:45.340Z,89.10
2023-01-18T01:54:45.359Z,90.14
2023-01-18T01:55:45.355Z,89.72
2023-01-18T01:56:45.336Z,89.62
2023-01-18T01:57:45.329Z,90.45
2023-01-18T01:58:45.312Z,91.29
2023-01-18T01:59:45.294Z,89.93
2023-01-18T02:00:45.373Z,90.03
2023-01-18T02:01:45.409Z,89.31
2023-01-18T02:02:45.335Z,89.83
2023-01-18T02:03:45.248Z,89.62
2023-01-18T02:04:45.271Z,89.51
2023-01-18T02:05:45.218Z,89.83
2023-01-18T02:06:45.228Z,89.83
2023-01-18T02:07:45.236Z,88.89
2023-01-18T02:08:45.208Z,89.10
2023-01-18T02:09:45.190Z,89.62
2023-01-18T02:10:45.207Z,89.51
2023-01-18T02:11:45.182Z,89.93
2023-01-18T02:12:45.198Z,89.62
2023-01-18T02:13:45.142Z,90.25
2023-01-18T02:14:45.140Z,89.62
2023-01-18T02:15:45.129Z,90.66
2023-01-18T02:16:45.216Z,90.66
2023-01-18T02:17:45.102Z,91.18
2023-01-18T02:18:45.127Z,90.14
2023-01-18T02:19:45.094Z,90.03
2023-01-18T02:20:45.079Z,91.39
2023-01-18T02:21:45.120Z,91.60
2023-01-18T02:22:45.067Z,90.66
2023-01-18T02:23:45.040Z,91.39
2023-01-18T02:24:45.065Z,90.66
2023-01-18T02:25:45.027Z,90.66
2023-01-18T02:26:45.010Z,90.87
2023-01-18T02:27:44.997Z,91.08
2023-01-18T02:28:44.989Z,90.87
2023-01-18T02:29:44.972Z,91.60
2023-01-18T05:06:47.344Z,89.51
2023-01-18T05:07:48.497Z,90.03
2023-01-18T05:08:48.313Z,90.35
2023-01-18T05:09:48.287Z,89.78
2023-01-18T05:10:48.296Z,90.56
2023-01-18T05:11:48.265Z,90.31
2023-01-18T05:12:48.546Z,90.87
2023-01-18T05:13:48.248Z,90.20
2023-01-18T05:14:48.295Z,89.41
2023-01-18T05:15:48.239Z,89.58
2023-01-18T05:16:48.227Z,88.64
2023-01-18T05:17:48.211Z,90.03
2023-01-18T05:18:48.240Z,89.83
2023-01-18T05:19:48.191Z,89.51
2023-01-18T05:20:48.217Z,90.35
2023-01-18T05:21:48.193Z,90.25
2023-01-18T05:22:48.183Z,91.25
2023-01-18T05:23:48.157Z,89.68
2023-01-18T05:24:48.147Z,90.14
2023-01-18T05:25:48.154Z,89.89
2023-01-18T05:26:48.132Z,89.68
2023-01-18T05:27:48.132Z,88.75
2023-01-18T05:28:48.112Z,89.58
2023-01-18T05:29:48.081Z,89.68
2023-01-18T05:30:48.089Z,90.10
2023-01-18T05:31:48.098Z,89.10
2023-01-18T05:32:48.077Z,90.10
2023-01-18T05:33:48.078Z,89.26
2023-01-18T05:34:48.051Z,89.78
2023-01-18T05:35:48.029Z,88.64
2023-01-18T05:36:48.033Z,88.32
2023-01-18T05:37:48.009Z,89.68
2023-01-18T05:38:48.015Z,89.47
2023-01-18T05:39:47.995Z,88.53
2023-01-18T05:40:47.996Z,89.16
2023-01-18T05:41:47.989Z,90.10
2023-01-18T05:42:48.294Z,90.20
2023-01-18T05:43:47.982Z,90.10
2023-01-18T05:44:47.960Z,88.75
2023-01-18T05:45:47.967Z,89.58
2023-01-18T05:46:47.939Z,89.37
2023-01-18T05:47:47.967Z,88.75
2023-01-18T05:48:47.910Z,89.58
2023-01-18T05:49:47.895Z,89.78
2023-01-18T05:50:47.889Z,88.95
2023-01-18T05:51:47.875Z,90.41
2023-01-18T05:52:47.862Z,89.68
2023-01-18T05:53:47.865Z,88.53
2023-01-18T05:54:47.857Z,89.47
2023-01-18T05:55:47.830Z,88.43
2023-01-18T05:56:47.818Z,88.64
2023-01-18T05:57:47.859Z,88.53
2023-01-18T05:58:47.817Z,88.95
2023-01-18T05:59:47.813Z,88.85
2023-01-18T06:00:47.812Z,87.07
2023-01-18T06:01:47.777Z,87.60
2023-01-18T06:02:47.761Z,89.16
2023-01-18T06:03:47.760Z,88.12
2023-01-18T06:04:47.764Z,86.66
2023-01-18T06:05:47.761Z,87.07
2023-01-18T06:06:47.719Z,87.70
2023-01-18T06:07:47.690Z,89.26
2023-01-18T06:08:47.698Z,89.58
2023-01-18T06:09:47.672Z,88.75
2023-01-18T06:10:47.676Z,89.37
2023-01-18T06:11:47.676Z,88.12
2023-01-18T06:12:47.653Z,86.76
2023-01-18T06:13:47.644Z,88.22
2023-01-18T06:14:47.644Z,87.70
2023-01-18T06:15:49.584Z,87.60
2023-01-18T06:16:47.642Z,87.91
2023-01-18T06:17:47.622Z,88.32
2023-01-18T06:18:47.595Z,88.01
2023-01-18T06:19:47.575Z,88.75
2023-01-18T06:20:47.575Z,88.43
2023-01-18T06:21:47.571Z,87.70
2023-01-18T06:22:47.550Z,86.55
2023-01-18T06:23:47.527Z,86.66
2023-01-18T06:24:47.532Z,87.18
2023-01-18T06:25:47.504Z,86.76
2023-01-18T06:26:47.515Z,86.13
2023-01-18T06:27:47.520Z,86.97
2023-01-18T06:28:47.489Z,86.76
2023-01-18T06:29:47.471Z,86.35
2023-01-18T06:30:47.494Z,86.87
2023-01-18T06:31:47.498Z,85.10
2023-01-18T06:32:47.461Z,86.03
2023-01-18T06:33:47.423Z,88.12
2023-01-18T06:34:47.426Z,87.07
2023-01-18T06:35:47.421Z,86.97
2023-01-18T06:36:47.406Z,86.97
2023-01-18T06:37:47.387Z,87.70
2023-01-18T06:38:47.394Z,87.70
2023-01-18T06:39:47.366Z,87.70
2023-01-18T06:40:47.382Z,87.39
2023-01-18T06:41:47.363Z,86.03
2023-01-18T06:42:47.364Z,87.28
2023-01-18T06:43:47.330Z,87.70
2023-01-18T06:44:47.322Z,87.39
2023-01-18T06:45:47.317Z,86.97
2023-01-18T06:46:47.295Z,86.55
2023-01-18T06:47:47.297Z,85.93
2023-01-18T06:48:47.253Z,86.13
2023-01-18T06:49:47.216Z,86.13
2023-01-18T06:50:47.224Z,86.66
2023-01-18T06:51:47.185Z,85.34
2023-01-18T06:52:47.203Z,87.01
2023-01-18T06:53:47.187Z,85.82
2023-01-18T06:54:47.194Z,85.13
2023-01-18T06:55:47.156Z,87.43
2023-01-18T06:56:47.151Z,87.18
2023-01-18T06:57:47.118Z,86.18
2023-01-18T06:58:47.133Z,86.18
2023-01-18T06:59:47.116Z,84.92
2023-01-18T07:00:47.347Z,86.49
2023-01-18T07:01:47.216Z,85.65
2023-01-18T07:02:47.097Z,85.44
2023-01-18T07:03:47.097Z,84.72
2023-01-18T07:04:47.086Z,85.97
2023-01-18T07:05:47.063Z,87.01
2023-01-18T07:06:47.069Z,86.18
2023-01-18T07:07:47.024Z,84.19
2023-01-18T07:08:47.026Z,85.34
2023-01-18T07:09:47.001Z,85.97
2023-01-18T07:10:47.001Z,83.88
2023-01-18T07:11:46.993Z,84.92
2023-01-18T07:12:46.984Z,86.18
2023-01-18T07:13:46.961Z,85.76
2023-01-18T07:14:46.992Z,85.76
2023-01-18T07:15:46.934Z,84.50
2023-01-18T07:16:46.962Z,84.50
2023-01-18T07:17:46.934Z,85.34
2023-01-18T07:18:46.957Z,84.40
2023-01-18T07:19:46.906Z,85.44
2023-01-18T07:20:46.908Z,85.76
2023-01-18T07:21:46.876Z,86.28
2023-01-18T07:22:46.888Z,85.13
2023-01-18T07:23:46.860Z,85.44
2023-01-18T07:24:46.866Z,85.76
2023-01-18T07:25:46.843Z,85.65
2023-01-18T07:26:46.850Z,83.25
2023-01-18T07:27:46.836Z,84.92
2023-01-18T07:28:46.828Z,85.03
2023-01-18T07:29:49.413Z,85.65
2023-01-18T07:30:46.817Z,83.88
2023-01-18T07:31:46.830Z,82.94
2023-01-18T07:32:46.791Z,84.61
2023-01-18T07:33:46.763Z,83.57
2023-01-18T07:34:46.763Z,81.27
2023-01-18T07:35:46.752Z,84.19
2023-01-18T07:36:46.734Z,84.50
2023-01-18T07:37:46.743Z,84.82
2023-01-18T07:38:46.732Z,85.86
2023-01-18T07:39:46.717Z,84.61
2023-01-18T07:40:46.697Z,85.03
2023-01-18T07:41:46.676Z,84.72
2023-01-18T07:42:46.718Z,82.84
2023-01-18T07:43:46.672Z,85.13
2023-01-18T07:44:46.665Z,82.84
2023-01-18T07:45:46.639Z,81.52
2023-01-18T07:46:46.658Z,82.14
2023-01-18T07:47:46.642Z,81.21
2023-01-18T07:48:46.649Z,84.23
2023-01-18T07:49:46.599Z,84.02
2023-01-18T07:50:46.623Z,83.50
2023-01-18T07:51:46.569Z,84.75
2023-01-18T07:52:46.605Z,83.40
2023-01-18T07:53:46.572Z,85.59
2023-01-18T07:54:46.550Z,86.00
2023-01-18T07:55:46.558Z,87.05
2023-01-18T07:56:46.565Z,86.11
2023-01-18T07:57:46.508Z,84.12
2023-01-18T07:58:46.539Z,85.69
2023-01-18T07:59:46.496Z,84.96
2023-01-18T08:00:46.582Z,84.65
2023-01-18T08:01:46.545Z,86.32
2023-01-18T08:02:46.531Z,84.02
2023-01-18T08:03:46.448Z,83.40
2023-01-18T08:04:46.451Z,84.02
2023-01-18T08:05:46.433Z,83.92
2023-01-18T08:06:46.449Z,84.75
2023-01-18T08:07:46.411Z,83.92
2023-01-18T08:08:46.427Z,84.34
2023-01-18T08:09:46.415Z,84.23
2023-01-18T08:10:46.416Z,84.75
2023-01-18T08:11:46.384Z,84.44
2023-01-18T08:12:46.366Z,84.96
2023-01-18T08:13:46.350Z,82.46
2023-01-18T08:14:46.347Z,84.75
2023-01-18T08:15:46.379Z,85.90
2023-01-18T08:16:46.349Z,85.86
2023-01-18T08:17:46.321Z,84.82
2023-01-18T08:18:46.311Z,85.27
2023-01-18T08:19:46.300Z,84.92
2023-01-18T08:20:46.305Z,85.03
2023-01-18T08:21:46.286Z,83.15
2023-01-18T08:22:46.261Z,84.19
2023-01-18T08:23:46.290Z,84.72
2023-01-18T08:24:46.251Z,82.84
2023-01-18T08:25:46.233Z,84.50
2023-01-18T08:26:46.220Z,84.12
2023-01-18T08:27:46.209Z,84.72
2023-01-18T08:28:46.235Z,84.30
2023-01-18T08:29:46.197Z,83.98
2023-01-18T08:30:46.276Z,83.98
2023-01-18T08:31:46.184Z,83.88
2023-01-18T08:32:46.171Z,86.07
2023-01-18T08:33:46.167Z,84.82
2023-01-18T08:34:46.166Z,84.40
2023-01-18T08:35:46.149Z,84.72
2023-01-18T08:36:46.141Z,84.30
2023-01-18T08:37:46.115Z,84.92
2023-01-18T08:38:46.121Z,86.18
2023-01-18T08:39:46.112Z,84.82
2023-01-18T08:40:46.165Z,86.59
2023-01-18T08:41:46.105Z,85.34
2023-01-18T08:42:46.048Z,83.98
2023-01-18T08:43:46.069Z,83.67
2023-01-18T08:44:46.050Z,82.94
2023-01-18T08:45:46.053Z,84.72
2023-01-18T08:46:46.072Z,83.67
2023-01-18T08:47:46.014Z,84.92
2023-01-18T08:48:45.993Z,85.03
2023-01-18T08:49:46.009Z,85.24
2023-01-18T08:50:46.044Z,85.13
2023-01-18T08:51:46.012Z,84.30
2023-01-18T08:52:45.943Z,85.24
2023-01-18T08:53:45.962Z,84.82
2023-01-18T08:54:45.914Z,83.47
2023-01-18T08:55:45.967Z,83.36
2023-01-18T08:56:45.961Z,84.92
2023-01-18T08:57:45.909Z,85.44
2023-01-18T08:58:46.049Z,84.92
2023-01-18T08:59:45.893Z,84.72
2023-01-18T09:00:46.090Z,85.55
2023-01-18T09:01:45.985Z,82.42
2023-01-18T09:02:45.873Z,82.73
2023-01-18T09:03:45.844Z,82.84
2023-01-18T09:04:45.818Z,83.57
2023-01-18T09:05:45.861Z,84.92
2023-01-18T09:06:45.836Z,84.50
2023-01-18T09:07:45.805Z,82.84
2023-01-18T09:08:45.787Z,83.67
2023-01-18T09:09:45.792Z,82.94
2023-01-18T09:10:45.769Z,82.94
2023-01-18T09:11:45.770Z,82.63
2023-01-18T09:12:45.746Z,83.98
2023-01-18T09:13:59.918Z,85.44
2023-01-18T09:14:45.724Z,85.41
2023-01-18T09:15:45.795Z,86.24
2023-01-18T09:16:45.704Z,85.20
2023-01-18T09:17:45.693Z,83.42
2023-01-18T09:18:45.709Z,84.36
2023-01-18T09:19:45.679Z,84.16
2023-01-18T09:20:45.665Z,85.61
2023-01-18T09:21:45.659Z,82.90
2023-01-18T09:22:45.634Z,84.67
2023-01-18T09:23:45.650Z,83.63
2023-01-18T09:24:45.632Z,84.36
2023-01-18T09:25:45.638Z,84.57
2023-01-18T09:26:45.609Z,85.41
2023-01-18T09:27:45.646Z,84.36
2023-01-18T09:28:45.575Z,84.53
2023-01-18T09:29:45.584Z,85.20
2023-01-18T09:30:45.564Z,84.12
2023-01-18T09:31:45.623Z,85.16
2023-01-18T09:32:45.521Z,85.05
2023-01-18T09:33:52.872Z,84.22
2023-01-18T09:34:45.514Z,84.53
2023-01-18T09:35:45.525Z,84.95
2023-01-18T09:36:45.486Z,84.43
2023-01-18T09:37:45.582Z,84.01
2023-01-18T09:38:45.465Z,82.65
2023-01-18T09:39:51.698Z,83.39
2023-01-18T09:40:45.504Z,83.59
2023-01-18T09:41:45.487Z,82.24
2023-01-18T09:42:45.437Z,82.87
2023-01-18T09:43:45.471Z,83.39
2023-01-18T09:44:45.419Z,82.34
2023-01-18T09:45:45.410Z,82.03
2023-01-18T09:46:45.471Z,82.65
2023-01-18T09:47:45.414Z,83.28
2023-01-18T09:48:45.367Z,81.51
2023-01-18T09:49:45.372Z,83.28
2023-01-18T09:50:45.358Z,82.97
2023-01-18T09:51:45.349Z,82.65
2023-01-18T09:52:45.348Z,81.93
2023-01-18T09:53:45.333Z,81.99
2023-01-18T09:54:45.300Z,81.79
2023-01-18T09:55:45.322Z,81.99
2023-01-18T09:56:45.290Z,82.51
2023-01-18T09:57:45.283Z,81.89
2023-01-18T09:58:45.303Z,81.16
2023-01-18T09:59:45.269Z,81.79
2023-01-18T10:00:45.284Z,83.04
2023-01-18T10:01:45.504Z,81.47
2023-01-18T10:02:45.319Z,81.79
2023-01-18T10:03:45.227Z,80.43
2023-01-18T10:04:45.211Z,80.43
2023-01-18T10:05:45.222Z,80.43
2023-01-18T10:06:45.217Z,81.37
2023-01-18T10:07:45.184Z,80.85
2023-01-18T10:08:45.159Z,80.85
2023-01-18T10:09:45.181Z,80.22
2023-01-18T10:10:45.133Z,79.77
2023-01-18T10:11:45.161Z,78.83
2023-01-18T10:12:45.131Z,79.35
2023-01-18T10:13:45.126Z,79.77
2023-01-18T10:14:45.137Z,79.46
2023-01-18T10:15:45.102Z,79.04
2023-01-18T10:16:45.093Z,79.66
2023-01-18T10:17:45.095Z,80.08
2023-01-18T10:18:45.149Z,80.29
2023-01-18T10:19:45.089Z,79.66
2023-01-18T10:20:45.078Z,80.08
2023-01-18T10:21:45.039Z,78.10
2023-01-18T10:22:45.012Z,76.75
2023-01-18T10:23:45.051Z,78.73
2023-01-18T10:24:44.993Z,77.69
2023-01-18T10:25:45.013Z,79.46
2023-01-18T10:26:44.975Z,77.48
2023-01-18T10:27:44.978Z,78.80
2023-01-18T10:28:44.975Z,78.07
2023-01-18T10:29:44.952Z,78.17
2023-01-18T10:30:44.936Z,75.78
2023-01-18T10:31:45.056Z,77.23
2023-01-18T10:32:44.918Z,77.34
2023-01-18T10:33:44.915Z,80.05
2023-01-18T10:34:44.921Z,79.11
2023-01-18T10:35:44.892Z,79.83
2023-01-18T10:36:44.876Z,80.26
2023-01-18T10:37:44.886Z,78.49
2023-01-18T10:38:44.861Z,79.17
2023-01-18T10:39:44.900Z,75.32
2023-01-18T10:40:44.822Z,76.57
2023-01-18T10:41:44.836Z,77.51
2023-01-18T10:42:44.805Z,76.37
2023-01-18T10:43:44.820Z,75.01
2023-01-18T10:44:44.813Z,75.43
2023-01-18T10:45:44.848Z,77.61
2023-01-18T10:46:44.773Z,74.80
2023-01-18T10:47:44.782Z,76.26
2023-01-18T10:48:44.749Z,76.26
2023-01-18T10:49:44.790Z,75.43
2023-01-18T10:50:44.728Z,74.80
2023-01-18T10:51:44.741Z,71.69
2023-01-18T10:52:44.712Z,76.54
2023-01-18T10:53:44.717Z,76.43
2023-01-18T10:54:44.685Z,75.92
2023-01-18T10:55:44.722Z,74.46
2023-01-18T10:56:44.667Z,75.29
2023-01-18T10:57:44.671Z,73.21
2023-01-18T10:58:44.643Z,72.49
2023-01-18T10:59:44.649Z,75.09
2023-01-18T11:00:44.658Z,71.86
2023-01-18T11:01:44.853Z,74.46
2023-01-18T11:02:44.653Z,73.11
2023-01-18T11:03:44.621Z,71.75
2023-01-18T11:04:44.607Z,70.61
2023-01-18T11:05:44.597Z,72.69
2023-01-18T11:06:44.560Z,74.98
2023-01-18T11:07:44.577Z,74.15
2023-01-18T11:08:44.571Z,74.46
2023-01-18T11:09:44.592Z,72.80
2023-01-18T11:10:44.530Z,72.38
2023-01-18T11:11:44.540Z,74.15
2023-01-18T11:12:44.497Z,72.28
2023-01-18T11:13:44.506Z,71.03
2023-01-18T11:14:44.517Z,73.07
2023-01-18T11:15:44.510Z,72.97
2023-01-18T11:16:44.546Z,71.31
2023-01-18T11:17:44.493Z,72.76
2023-01-18T11:18:44.455Z,72.66
2023-01-18T11:19:44.445Z,74.74
2023-01-18T11:20:44.470Z,73.60
2023-01-18T11:21:44.420Z,74.32
2023-01-18T11:22:44.427Z,71.31
2023-01-18T11:23:44.412Z,71.41
2023-01-18T11:24:44.384Z,71.10
2023-01-18T11:25:44.386Z,69.64
2023-01-18T11:26:44.366Z,71.93
2023-01-18T11:27:44.379Z,70.79
2023-01-18T11:28:44.338Z,71.83
2023-01-18T11:29:44.340Z,71.41
2023-01-18T11:30:44.334Z,72.14
2023-01-18T11:31:44.341Z,70.37
2023-01-18T11:32:44.345Z,69.85
2023-01-18T11:33:44.305Z,68.50
2023-01-18T11:34:44.276Z,68.19
2023-01-18T11:35:44.285Z,69.23
2023-01-18T11:36:44.280Z,69.54
2023-01-18T11:37:44.283Z,69.23
2023-01-18T11:38:44.494Z,69.23
2023-01-18T11:39:45.608Z,70.48
2023-01-18T11:40:44.232Z,68.50
2023-01-18T11:41:44.270Z,67.88
2023-01-18T11:42:44.194Z,69.23
2023-01-18T11:43:44.197Z,70.17
2023-01-18T11:44:44.189Z,72.97
2023-01-18T11:45:45.522Z,70.68
2023-01-18T11:46:44.162Z,70.58
2023-01-18T11:47:44.179Z,69.43
2023-01-18T11:48:44.147Z,72.45
2023-01-18T11:49:44.143Z,70.27
2023-01-18T11:50:44.127Z,71.41
2023-01-18T11:51:45.714Z,72.86
2023-01-18T11:52:44.109Z,70.79
2023-01-18T11:53:44.122Z,68.29
2023-01-18T11:54:44.063Z,68.19
2023-01-18T11:55:44.104Z,70.06
2023-01-18T11:56:44.080Z,71.62
2023-01-18T11:57:44.951Z,72.55
2023-01-18T11:58:44.037Z,72.63
2023-01-18T11:59:44.087Z,70.68
2023-01-18T12:00:44.012Z,68.88
2023-01-18T12:01:44.018Z,67.22
2023-01-18T12:02:44.009Z,68.47
2023-01-18T12:03:44.179Z,70.54
2023-01-18T12:04:43.980Z,68.47
2023-01-18T12:05:45.813Z,68.68
2023-01-18T12:06:43.955Z,69.30
2023-01-18T12:07:44.472Z,69.09
2023-01-18T12:08:43.950Z,68.16
2023-01-18T12:09:43.959Z,68.88
2023-01-18T12:10:43.911Z,70.34
2023-01-18T12:11:45.623Z,70.97
2023-01-18T12:12:43.901Z,70.86
2023-01-18T12:13:43.900Z,69.61
2023-01-18T12:14:43.887Z,66.39
2023-01-18T12:15:43.882Z,67.43
2023-01-18T12:16:43.903Z,66.28
2023-01-18T12:17:46.039Z,68.16
2023-01-18T12:18:43.835Z,67.43
2023-01-18T12:19:43.833Z,68.47
2023-01-18T12:20:43.830Z,67.64
2023-01-18T12:21:43.812Z,69.61
2023-01-18T12:22:43.785Z,67.85
2023-01-18T12:23:43.809Z,67.54
2023-01-18T12:24:45.815Z,69.51
2023-01-18T12:25:43.791Z,66.50
2023-01-18T12:26:43.730Z,66.39
2023-01-18T12:27:43.755Z,68.54
2023-01-18T12:28:43.723Z,71.28
2023-01-18T12:29:43.738Z,67.50
2023-01-18T12:30:43.804Z,65.94
2023-01-18T12:31:43.716Z,67.71
2023-01-18T12:32:43.698Z,67.30
2023-01-18T12:33:44.249Z,68.54
2023-01-18T12:34:43.790Z,67.61
2023-01-18T12:35:43.691Z,68.96
2023-01-18T12:36:43.668Z,68.33
2023-01-18T12:37:43.652Z,68.96
2023-01-18T12:38:43.680Z,66.78
2023-01-18T12:39:43.629Z,66.78
2023-01-18T12:40:43.603Z,68.75
2023-01-18T12:41:43.612Z,70.10
2023-01-18T12:42:43.578Z,69.06
2023-01-18T12:43:43.586Z,68.75
2023-01-18T12:44:43.610Z,66.05
2023-01-18T12:45:43.564Z,67.61
2023-01-18T12:46:43.560Z,67.40
2023-01-18T12:47:43.543Z,68.33
2023-01-18T12:48:43.516Z,68.02
2023-01-18T12:49:43.556Z,68.44
2023-01-18T12:50:43.626Z,68.54
2023-01-18T12:51:43.515Z,68.33
2023-01-18T12:52:43.480Z,70.20
2023-01-18T12:53:43.485Z,69.79
2023-01-18T12:54:43.469Z,66.99
2023-01-18T12:55:43.588Z,68.23
2023-01-18T12:56:43.491Z,69.89
2023-01-18T12:57:45.688Z,66.67
2023-01-18T12:58:43.419Z,67.71
2023-01-18T12:59:43.410Z,68.02
2023-01-18T13:00:43.405Z,67.82
2023-01-18T13:01:43.492Z,67.30
2023-01-18T13:02:43.405Z,67.40
2023-01-18T13:03:43.368Z,67.09
2023-01-18T13:04:43.372Z,67.09
2023-01-18T13:05:43.340Z,67.92
2023-01-18T13:06:43.371Z,64.80
2023-01-18T13:07:43.334Z,65.01
2023-01-18T13:08:44.761Z,67.92
2023-01-18T13:09:43.323Z,69.17
2023-01-18T13:10:43.359Z,70.00
2023-01-18T13:11:43.315Z,68.75
2023-01-18T13:12:43.314Z,68.85
2023-01-18T13:13:43.253Z,69.27
2023-01-18T13:14:43.261Z,67.30
2023-01-18T13:15:43.291Z,69.48
2023-01-18T13:16:43.861Z,70.38
2023-01-18T13:17:43.234Z,69.55
2023-01-18T13:18:43.216Z,70.69
2023-01-18T13:19:43.237Z,68.13
2023-01-18T13:20:43.327Z,69.76
2023-01-18T13:21:43.170Z,70.17
2023-01-18T13:22:43.220Z,72.04
2023-01-18T13:23:43.168Z,70.69
2023-01-18T13:24:43.174Z,71.62
2023-01-18T13:25:43.147Z,71.00
2023-01-18T13:26:43.147Z,70.38
2023-01-18T13:27:43.145Z,71.21
2023-01-18T13:28:43.176Z,71.00
2023-01-18T13:29:43.098Z,71.62
2023-01-18T13:30:43.176Z,71.83
2023-01-18T13:31:43.087Z,71.62
2023-01-18T13:32:43.076Z,73.08
2023-01-18T13:33:43.086Z,72.28
2023-01-18T13:34:48.511Z,70.31
2023-01-18T13:35:43.036Z,71.14
2023-01-18T13:36:43.027Z,71.97
2023-01-18T13:37:43.014Z,71.14
2023-01-18T13:38:43.043Z,70.10
2023-01-18T13:39:42.988Z,72.59
2023-01-18T13:40:42.998Z,70.10
2023-01-18T13:41:42.962Z,73.84
2023-01-18T13:42:43.042Z,70.51
2023-01-18T13:43:42.985Z,71.45
2023-01-18T13:44:42.978Z,69.79
2023-01-18T13:45:42.976Z,68.75
2023-01-18T13:46:43.005Z,69.27
2023-01-18T13:47:42.962Z,72.07
2023-01-18T13:48:42.910Z,73.32
2023-01-18T13:49:42.926Z,71.86
2023-01-18T13:50:42.936Z,69.17
2023-01-18T13:51:42.899Z,69.34
2023-01-18T13:52:42.896Z,69.86
2023-01-18T13:53:42.865Z,68.93
2023-01-18T13:54:43.352Z,73.08
2023-01-18T13:55:42.818Z,71.42
2023-01-18T13:56:42.830Z,71.83
2023-01-18T13:57:42.816Z,69.55
2023-01-18T13:58:42.842Z,70.41
2023-01-18T13:59:42.809Z,70.00
2023-01-18T14:00:42.815Z,71.76
2023-01-18T14:01:43.371Z,70.41
2023-01-18T14:02:42.840Z,72.90
2023-01-18T14:03:42.876Z,71.45
2023-01-18T14:04:42.751Z,71.55
2023-01-18T14:05:42.724Z,71.97
2023-01-18T14:06:42.748Z,71.14
2023-01-18T14:07:42.703Z,71.66
2023-01-18T14:08:42.726Z,72.59
2023-01-18T14:09:42.683Z,70.41
2023-01-18T14:10:42.690Z,70.72
2023-01-18T14:11:42.657Z,72.69
2023-01-18T14:12:42.666Z,70.34
2023-01-18T14:13:42.660Z,72.83
2023-01-18T14:14:42.682Z,71.07
2023-01-18T14:15:42.715Z,69.92
2023-01-18T14:16:42.639Z,68.88
2023-01-18T14:17:57.808Z,69.82
2023-01-18T14:18:42.643Z,71.69
2023-01-18T14:19:42.591Z,69.92
2023-01-18T14:20:42.633Z,70.31
2023-01-18T14:21:42.600Z,70.93
2023-01-18T14:22:42.581Z,71.97
2023-01-18T14:23:42.560Z,70.83
2023-01-18T14:24:42.562Z,71.07
2023-01-18T14:25:42.510Z,68.57
2023-01-18T14:26:42.624Z,71.69
2023-01-18T14:27:42.514Z,69.82
2023-01-18T14:28:42.515Z,70.34
2023-01-18T14:29:42.491Z,72.11
2023-01-18T14:30:42.518Z,72.52
2023-01-18T14:31:42.450Z,70.13
2023-01-18T14:32:42.459Z,70.13
2023-01-18T14:33:42.450Z,70.54
2023-01-18T14:34:42.510Z,71.07
2023-01-18T14:35:42.448Z,70.34
2023-01-18T14:36:42.441Z,71.28
2023-01-18T14:37:42.382Z,71.17
2023-01-18T14:38:42.413Z,73.56
2023-01-18T14:39:42.392Z,73.77
2023-01-18T14:40:42.387Z,73.77
2023-01-18T14:41:42.383Z,73.97
2023-01-18T14:42:42.359Z,73.46
2023-01-18T14:43:42.327Z,74.49
2023-01-18T14:44:57.268Z,72.83
2023-01-18T14:45:42.311Z,73.56
2023-01-18T14:46:42.351Z,74.39
2023-01-18T14:47:42.284Z,74.80
2023-01-18T14:48:42.325Z,74.70
2023-01-18T14:49:42.277Z,72.94
2023-01-18T14:50:42.264Z,75.54
2023-01-18T14:51:42.258Z,74.18
2023-01-18T14:52:42.266Z,72.21
2023-01-18T14:53:42.258Z,74.08
2023-01-18T14:54:42.240Z,75.64
2023-01-18T14:55:42.220Z,73.25
2023-01-18T14:56:42.229Z,72.31
2023-01-18T14:57:42.218Z,76.26
2023-01-18T14:58:42.214Z,76.57
2023-01-18T14:59:42.222Z,76.26
2023-01-18T15:00:42.207Z,75.85
2023-01-18T15:01:42.438Z,75.98
2023-01-18T15:02:42.257Z,75.46
2023-01-18T15:03:42.138Z,75.57
2023-01-18T15:04:42.143Z,77.13
2023-01-18T15:05:42.248Z,75.78
2023-01-18T15:06:42.118Z,77.55
2023-01-18T15:07:42.095Z,75.26
2023-01-18T15:08:42.120Z,75.36
2023-01-18T15:09:42.160Z,73.91
2023-01-18T15:10:42.075Z,75.46
2023-01-18T15:11:42.071Z,76.09
2023-01-18T15:12:42.071Z,74.74
2023-01-18T15:13:42.023Z,75.57
2023-01-18T15:14:42.033Z,74.32
2023-01-18T15:15:42.003Z,74.74
2023-01-18T15:16:42.027Z,75.88
2023-01-18T15:17:41.997Z,77.23
2023-01-18T15:18:42.012Z,75.05
2023-01-18T15:19:41.987Z,75.46
2023-01-18T15:20:41.980Z,75.98
2023-01-18T15:21:41.937Z,75.26
2023-01-18T15:22:41.969Z,75.50
2023-01-18T15:23:41.938Z,76.95
2023-01-18T15:24:41.973Z,76.43
2023-01-18T15:25:41.921Z,77.27
2023-01-18T15:26:42.028Z,76.12
2023-01-18T15:27:42.933Z,76.95
2023-01-18T15:28:41.901Z,77.58